createdAt,value
2022-08-02T00:03:24.653Z,1.35
2022-08-02T00:08:26.491Z,1.60
2022-08-02T00:13:28.205Z,1.30
2022-08-02T00:18:29.764Z,1.55
2022-08-02T00:23:31.382Z,1.40
2022-08-02T00:28:33.030Z,1.33
2022-08-02T00:34:09.138Z,1.30
2022-08-02T00:38:57.078Z,1.27
2022-08-02T00:43:58.673Z,1.20
2022-08-02T00:49:00.301Z,1.38
2022-08-02T00:54:03.350Z,1.20
2022-08-02T00:59:05.165Z,1.30
2022-08-02T01:04:14.039Z,1.30
2022-08-02T01:09:17.071Z,1.40
2022-08-02T01:14:18.927Z,1.70
2022-08-02T01:19:38.798Z,1.50
2022-08-02T01:25:02.286Z,1.30
2022-08-02T01:30:04.439Z,1.50
2022-08-02T01:35:17.411Z,1.38
2022-08-02T01:40:32.514Z,1.58
2022-08-02T01:45:35.745Z,1.80
2022-08-02T01:50:38.211Z,1.40
2022-08-02T01:55:57.934Z,1.80
2022-08-02T02:01:01.191Z,1.60
2022-08-02T02:06:03.698Z,1.42
2022-08-02T02:12:11.834Z,1.58
2022-08-02T02:16:28.701Z,1.80
2022-08-02T02:21:30.696Z,1.60
2022-08-02T02:26:33.571Z,1.88
2022-08-02T02:31:39.385Z,1.60
2022-08-02T02:36:44.830Z,1.80
2022-08-02T02:41:49.095Z,1.63
2022-08-02T02:46:53.707Z,1.50
2022-08-02T02:51:55.943Z,1.85
2022-08-02T02:56:58.534Z,1.70
2022-08-02T03:02:00.307Z,1.60
2022-08-02T03:07:02.134Z,1.90
2022-08-02T03:12:04.110Z,1.77
2022-08-02T03:17:05.683Z,1.50
2022-08-02T03:22:07.422Z,1.58
2022-08-02T03:27:09.092Z,1.50
2022-08-02T03:32:11.027Z,1.65
2022-08-02T03:37:12.768Z,1.65
2022-08-02T03:42:15.372Z,1.63
2022-08-02T03:47:18.579Z,1.95
2022-08-02T03:52:20.523Z,1.70
2022-08-02T03:57:22.184Z,1.95
2022-08-02T04:02:23.766Z,2.17
2022-08-02T04:08:02.753Z,1.92
2022-08-02T04:12:46.922Z,1.83
2022-08-02T04:17:52.032Z,1.98
2022-08-02T04:23:08.037Z,1.90
2022-08-02T04:28:16.988Z,2.00
2022-08-02T04:33:20.065Z,2.30
2022-08-02T04:38:21.716Z,3.40
2022-08-02T04:43:23.816Z,2.95
2022-08-02T04:48:25.418Z,2.75
2022-08-02T04:53:27.023Z,2.70
2022-08-02T04:58:44.056Z,2.50
2022-08-02T05:03:46.857Z,2.40
2022-08-02T05:08:52.811Z,2.25
2022-08-02T05:13:57.524Z,1.92
2022-08-02T05:19:00.988Z,2.63
2022-08-02T05:24:02.821Z,3.05
2022-08-02T05:29:05.032Z,3.28
2022-08-02T05:34:11.371Z,2.50
2022-08-02T05:39:18.860Z,2.60
2022-08-02T05:44:20.834Z,2.90
2022-08-02T05:49:22.531Z,2.80
2022-08-02T05:55:09.875Z,2.72
2022-08-02T06:00:13.814Z,3.38
2022-08-02T06:05:22.703Z,3.05
2022-08-02T06:10:27.409Z,3.13
2022-08-02T06:15:29.366Z,3.03
2022-08-02T06:20:37.737Z,3.28
2022-08-02T06:25:51.212Z,3.65
2022-08-02T06:30:53.869Z,2.95
2022-08-02T06:36:04.459Z,3.47
2022-08-02T06:41:14.052Z,3.53
2022-08-02T06:46:34.500Z,3.50
2022-08-02T06:51:37.680Z,2.75
2022-08-02T06:56:39.306Z,3.17
2022-08-02T07:01:41.406Z,3.00
2022-08-02T07:06:42.991Z,3.20
2022-08-02T07:11:44.536Z,3.25
2022-08-02T07:16:46.175Z,3.15
2022-08-02T07:21:56.701Z,2.63
2022-08-02T07:27:11.106Z,2.45
2022-08-02T07:32:13.537Z,2.50
2022-08-02T07:37:36.040Z,2.60
2022-08-02T07:42:37.331Z,3.00
2022-08-02T07:47:43.566Z,2.95
2022-08-02T07:52:46.119Z,2.35
2022-08-02T07:57:47.756Z,2.40
2022-08-02T08:02:49.550Z,1.98
2022-08-02T08:07:52.168Z,2.15
2022-08-02T08:12:55.198Z,2.42
2022-08-02T08:17:56.824Z,2.50
2022-08-02T08:22:58.401Z,2.42
2022-08-02T08:28:00.037Z,2.05
2022-08-02T08:33:02.001Z,1.90
2022-08-02T08:38:07.514Z,2.05
2022-08-02T08:43:09.599Z,2.13
2022-08-02T08:48:30.429Z,2.10
2022-08-02T08:53:42.477Z,1.70
2022-08-02T08:58:45.558Z,2.30
2022-08-02T09:03:47.211Z,2.17
2022-08-02T09:08:48.893Z,2.80
2022-08-02T09:13:52.022Z,2.60
2022-08-02T09:18:53.586Z,2.60
2022-08-02T09:23:57.316Z,2.20
2022-08-02T09:29:02.570Z,3.10
2022-08-02T09:34:04.433Z,2.30
2022-08-02T09:39:07.818Z,2.60
2022-08-02T09:44:15.719Z,2.30
2022-08-02T09:49:19.333Z,2.55
2022-08-02T09:54:24.683Z,2.30
2022-08-02T09:59:27.764Z,2.83
2022-08-02T10:04:31.978Z,2.60
2022-08-02T10:09:39.031Z,2.50
2022-08-02T10:14:45.227Z,2.30
2022-08-02T10:20:02.373Z,2.10
2022-08-02T10:25:06.747Z,2.30
2022-08-02T10:30:10.088Z,2.15
2022-08-02T10:35:25.220Z,2.10
2022-08-02T10:40:46.135Z,1.90
2022-08-02T10:45:50.721Z,2.10
2022-08-02T10:50:53.045Z,2.17
2022-08-02T10:55:56.104Z,1.80
2022-08-02T11:00:59.383Z,1.85
2022-08-02T11:06:03.037Z,2.00
2022-08-02T11:11:10.504Z,1.60
2022-08-02T11:16:12.294Z,2.13
2022-08-02T11:21:30.709Z,2.10
2022-08-02T11:26:32.236Z,1.95
2022-08-02T11:31:42.229Z,2.13
2022-08-02T11:36:48.191Z,1.83
2022-08-02T11:41:53.952Z,3.53
2022-08-02T11:47:02.599Z,2.10
2022-08-02T11:52:06.465Z,1.77
2022-08-02T11:57:14.393Z,1.92
2022-08-02T12:02:22.528Z,2.08
2022-08-02T12:07:34.510Z,1.98
2022-08-02T12:12:54.563Z,1.88
2022-08-02T12:18:14.351Z,1.92
2022-08-02T12:23:15.921Z,1.60
2022-08-02T12:28:22.363Z,1.90
2022-08-02T12:33:28.492Z,1.60
2022-08-02T12:38:30.235Z,1.63
2022-08-02T12:43:31.876Z,1.70
2022-08-02T12:48:42.709Z,1.83
2022-08-02T12:53:58.971Z,1.60
2022-08-02T12:59:01.773Z,1.90
2022-08-02T13:04:07.935Z,1.70
2022-08-02T13:09:17.089Z,2.17
2022-08-02T13:14:19.007Z,1.60
2022-08-02T13:19:20.639Z,1.80
2022-08-02T13:24:38.333Z,1.80
2022-08-02T13:29:43.189Z,1.60
2022-08-02T13:34:44.941Z,1.90
2022-08-02T13:40:00.512Z,1.80
2022-08-02T13:45:12.545Z,2.10
2022-08-02T13:50:16.448Z,1.88
2022-08-02T13:55:18.106Z,2.20
2022-08-02T14:00:19.649Z,3.00
2022-08-02T14:05:47.867Z,2.97
2022-08-02T14:10:51.221Z,2.38
2022-08-02T14:15:52.895Z,2.65
2022-08-02T14:20:54.515Z,1.95
2022-08-02T14:25:57.306Z,2.10
2022-08-02T14:30:58.832Z,1.67
2022-08-02T14:36:00.496Z,1.60
2022-08-02T14:41:02.120Z,2.00
2022-08-02T14:46:03.676Z,1.40
2022-08-02T14:51:05.312Z,1.70
2022-08-02T14:56:06.895Z,1.65
2022-08-02T15:01:08.527Z,1.70
2022-08-02T15:06:10.169Z,1.88
2022-08-02T15:11:12.053Z,1.98
2022-08-02T15:16:13.666Z,1.98
2022-08-02T15:21:40.679Z,1.70
2022-08-02T15:26:36.873Z,1.60
2022-08-02T15:31:41.779Z,1.70
2022-08-02T15:36:43.476Z,1.80
2022-08-02T15:41:45.027Z,1.65
2022-08-02T15:46:46.710Z,2.00
2022-08-02T15:51:48.261Z,1.80
2022-08-02T15:56:50.049Z,1.80
2022-08-02T16:01:51.618Z,1.60
2022-08-02T16:06:53.681Z,1.73
2022-08-02T16:11:55.537Z,1.73
2022-08-02T16:16:57.095Z,1.80
2022-08-02T16:21:58.635Z,2.40
2022-08-02T16:27:00.186Z,1.85
2022-08-02T16:32:01.720Z,1.63
2022-08-02T16:37:03.421Z,1.90
2022-08-02T16:42:04.985Z,1.80
2022-08-02T16:47:06.808Z,1.80
2022-08-02T16:52:09.578Z,2.40
2022-08-02T16:57:11.363Z,1.65
2022-08-02T17:02:19.604Z,2.05
2022-08-02T17:08:07.566Z,1.80
2022-08-02T17:12:44.808Z,2.00
2022-08-02T17:17:52.920Z,2.30
2022-08-02T17:22:54.457Z,1.70
2022-08-02T17:27:56.205Z,1.80
2022-08-02T17:32:59.427Z,1.70
2022-08-02T17:38:01.142Z,1.92
2022-08-02T17:43:02.793Z,2.35
2022-08-02T17:48:16.396Z,2.38
2022-08-02T17:53:18.953Z,1.88
2022-08-02T17:58:20.501Z,2.10
2022-08-02T18:03:22.925Z,1.95
2022-08-02T18:08:24.588Z,1.95
2022-08-02T18:13:26.197Z,1.92
2022-08-02T18:18:34.316Z,1.92
2022-08-02T18:23:38.100Z,1.70
2022-08-02T18:28:45.929Z,1.80
2022-08-02T18:33:54.465Z,2.13
2022-08-02T18:38:58.170Z,1.73
2022-08-02T18:44:01.308Z,1.92
2022-08-02T18:49:06.774Z,2.20
2022-08-02T18:54:16.850Z,2.13
2022-08-02T18:59:36.634Z,1.85
2022-08-02T19:04:43.579Z,2.10
2022-08-02T19:09:49.378Z,2.30
2022-08-02T19:14:52.156Z,1.80
2022-08-02T19:19:56.061Z,2.10
2022-08-02T19:25:00.987Z,2.42
2022-08-02T19:30:07.789Z,2.30
2022-08-02T19:35:19.985Z,2.10
2022-08-02T19:40:31.822Z,2.20
2022-08-02T19:45:49.593Z,2.30
2022-08-02T19:50:56.061Z,2.00
2022-08-02T19:56:02.782Z,1.98
2022-08-02T20:01:05.546Z,2.00
2022-08-02T20:06:07.137Z,1.80
2022-08-02T20:11:14.916Z,1.85
2022-08-02T20:16:27.996Z,1.70
2022-08-02T20:21:36.266Z,2.17
2022-08-02T20:26:47.254Z,1.95
2022-08-02T20:31:50.513Z,2.33
2022-08-02T20:36:53.920Z,2.10
2022-08-02T20:41:58.672Z,2.38
2022-08-02T20:47:01.321Z,2.03
2022-08-02T20:52:03.044Z,2.10
2022-08-02T20:57:48.799Z,2.17
2022-08-02T21:02:46.363Z,2.20
2022-08-02T21:07:53.398Z,2.05
2022-08-02T21:12:56.527Z,2.10
2022-08-02T21:18:01.421Z,2.15
2022-08-02T21:23:08.899Z,2.20
2022-08-02T21:28:21.810Z,2.30
2022-08-02T21:33:24.682Z,2.25
2022-08-02T21:38:36.570Z,2.20
2022-08-02T21:43:38.642Z,2.22
2022-08-02T21:48:40.814Z,2.53
2022-08-02T21:53:43.117Z,2.40
2022-08-02T21:58:44.767Z,2.53
2022-08-02T22:03:55.736Z,2.92
2022-08-02T22:08:57.397Z,2.70
2022-08-02T22:14:02.074Z,2.60
2022-08-02T22:19:03.998Z,2.45
2022-08-02T22:24:12.843Z,2.65
2022-08-02T22:29:21.018Z,2.83
2022-08-02T22:34:26.801Z,2.50
2022-08-02T22:40:06.097Z,2.75
2022-08-02T22:45:06.171Z,2.75
2022-08-02T22:50:11.802Z,2.70
2022-08-02T22:55:14.197Z,2.85
2022-08-02T23:00:16.148Z,2.65
2022-08-02T23:05:17.809Z,2.60
2022-08-02T23:10:19.404Z,2.70
2022-08-02T23:15:21.006Z,2.78
2022-08-02T23:20:22.683Z,2.70
2022-08-02T23:25:24.218Z,2.97
2022-08-02T23:30:26.024Z,2.80
2022-08-02T23:35:27.689Z,2.58
2022-08-02T23:40:39.212Z,2.88
2022-08-02T23:45:44.406Z,2.92
2022-08-02T23:50:46.019Z,2.90
2022-08-02T23:55:47.620Z,2.78
